sensor_id;sensor_type;location;lat;lon;timestamp;P1;durP1;ratioP1;P2;durP2;ratioP2
10074;SDS011;5076;42.680;23.288;2022-07-29T00:00:44;7.40;;;6.80;;
10074;SDS011;5076;42.680;23.288;2022-07-29T00:03:11;7.17;;;6.57;;
10074;SDS011;5076;42.680;23.288;2022-07-29T00:05:38;7.03;;;6.33;;
10074;SDS011;5076;42.680;23.288;2022-07-29T00:08:04;7.57;;;6.80;;
10074;SDS011;5076;42.680;23.288;2022-07-29T00:10:31;7.00;;;6.43;;
10074;SDS011;5076;42.680;23.288;2022-07-29T00:12:58;7.00;;;6.17;;
10074;SDS011;5076;42.680;23.288;2022-07-29T00:15:24;6.10;;;5.50;;
10074;SDS011;5076;42.680;23.288;2022-07-29T00:17:52;7.17;;;5.83;;
10074;SDS011;5076;42.680;23.288;2022-07-29T00:20:19;8.07;;;5.40;;
10074;SDS011;5076;42.680;23.288;2022-07-29T00:22:45;5.50;;;4.80;;
10074;SDS011;5076;42.680;23.288;2022-07-29T00:25:12;5.53;;;5.13;;
10074;SDS011;5076;42.680;23.288;2022-07-29T00:27:39;6.13;;;5.53;;
10074;SDS011;5076;42.680;23.288;2022-07-29T00:30:06;5.80;;;5.30;;
10074;SDS011;5076;42.680;23.288;2022-07-29T00:32:33;5.60;;;5.10;;
10074;SDS011;5076;42.680;23.288;2022-07-29T00:35:01;6.70;;;6.10;;
10074;SDS011;5076;42.680;23.288;2022-07-29T00:37:45;5.73;;;5.23;;
10074;SDS011;5076;42.680;23.288;2022-07-29T00:40:11;6.50;;;5.90;;
10074;SDS011;5076;42.680;23.288;2022-07-29T00:42:41;6.73;;;6.17;;
10074;SDS011;5076;42.680;23.288;2022-07-29T00:45:08;6.70;;;6.10;;
10074;SDS011;5076;42.680;23.288;2022-07-29T00:47:35;7.53;;;6.83;;
10074;SDS011;5076;42.680;23.288;2022-07-29T00:50:04;8.03;;;7.33;;
10074;SDS011;5076;42.680;23.288;2022-07-29T00:52:31;8.90;;;8.10;;
10074;SDS011;5076;42.680;23.288;2022-07-29T00:54:58;8.50;;;7.70;;
10074;SDS011;5076;42.680;23.288;2022-07-29T00:57:25;9.13;;;8.27;;
10074;SDS011;5076;42.680;23.288;2022-07-29T00:59:51;9.73;;;8.77;;
10074;SDS011;5076;42.680;23.288;2022-07-29T01:02:18;9.77;;;8.83;;
10074;SDS011;5076;42.680;23.288;2022-07-29T01:04:44;9.60;;;8.57;;
10074;SDS011;5076;42.680;23.288;2022-07-29T01:07:12;9.40;;;8.63;;
10074;SDS011;5076;42.680;23.288;2022-07-29T01:09:39;9.30;;;8.40;;
10074;SDS011;5076;42.680;23.288;2022-07-29T01:12:07;8.47;;;7.73;;
10074;SDS011;5076;42.680;23.288;2022-07-29T01:14:33;9.20;;;8.43;;
10074;SDS011;5076;42.680;23.288;2022-07-29T01:17:02;9.83;;;8.43;;
10074;SDS011;5076;42.680;23.288;2022-07-29T01:19:39;9.10;;;8.30;;
10074;SDS011;5076;42.680;23.288;2022-07-29T01:22:15;9.10;;;8.23;;
10074;SDS011;5076;42.680;23.288;2022-07-29T01:24:50;9.53;;;8.37;;
10074;SDS011;5076;42.680;23.288;2022-07-29T01:27:27;9.83;;;8.93;;
10074;SDS011;5076;42.680;23.288;2022-07-29T01:29:58;9.00;;;8.23;;
10074;SDS011;5076;42.680;23.288;2022-07-29T01:32:26;10.23;;;9.03;;
10074;SDS011;5076;42.680;23.288;2022-07-29T01:34:54;9.43;;;8.63;;
10074;SDS011;5076;42.680;23.288;2022-07-29T01:37:23;10.27;;;9.07;;
10074;SDS011;5076;42.680;23.288;2022-07-29T01:39:52;10.10;;;9.03;;
10074;SDS011;5076;42.680;23.288;2022-07-29T01:42:23;11.13;;;9.13;;
10074;SDS011;5076;42.680;23.288;2022-07-29T01:44:54;11.20;;;9.13;;
10074;SDS011;5076;42.680;23.288;2022-07-29T01:47:25;9.90;;;9.00;;
10074;SDS011;5076;42.680;23.288;2022-07-29T01:49:54;9.23;;;8.37;;
10074;SDS011;5076;42.680;23.288;2022-07-29T01:52:21;11.40;;;7.93;;
10074;SDS011;5076;42.680;23.288;2022-07-29T01:54:51;10.03;;;9.10;;
10074;SDS011;5076;42.680;23.288;2022-07-29T01:57:18;10.27;;;9.33;;
10074;SDS011;5076;42.680;23.288;2022-07-29T01:59:46;10.27;;;9.27;;
10074;SDS011;5076;42.680;23.288;2022-07-29T02:02:13;9.67;;;8.77;;
10074;SDS011;5076;42.680;23.288;2022-07-29T02:04:42;10.00;;;8.93;;
10074;SDS011;5076;42.680;23.288;2022-07-29T02:07:10;8.77;;;7.77;;
10074;SDS011;5076;42.680;23.288;2022-07-29T02:09:37;9.27;;;8.33;;
10074;SDS011;5076;42.680;23.288;2022-07-29T02:12:05;9.33;;;8.17;;
10074;SDS011;5076;42.680;23.288;2022-07-29T02:14:33;8.63;;;7.07;;
10074;SDS011;5076;42.680;23.288;2022-07-29T02:17:00;8.13;;;7.23;;
10074;SDS011;5076;42.680;23.288;2022-07-29T02:19:27;7.90;;;6.77;;
10074;SDS011;5076;42.680;23.288;2022-07-29T02:21:57;7.27;;;6.57;;
10074;SDS011;5076;42.680;23.288;2022-07-29T02:24:24;8.47;;;7.07;;
10074;SDS011;5076;42.680;23.288;2022-07-29T02:26:52;8.03;;;7.33;;
10074;SDS011;5076;42.680;23.288;2022-07-29T02:29:19;8.53;;;6.77;;
10074;SDS011;5076;42.680;23.288;2022-07-29T02:31:48;8.20;;;7.40;;
10074;SDS011;5076;42.680;23.288;2022-07-29T02:34:15;7.97;;;7.23;;
10074;SDS011;5076;42.680;23.288;2022-07-29T02:36:42;7.90;;;6.63;;
10074;SDS011;5076;42.680;23.288;2022-07-29T02:39:11;11.30;;;7.13;;
10074;SDS011;5076;42.680;23.288;2022-07-29T02:41:40;8.50;;;7.30;;
10074;SDS011;5076;42.680;23.288;2022-07-29T02:44:09;10.47;;;7.23;;
10074;SDS011;5076;42.680;23.288;2022-07-29T02:46:37;9.20;;;7.70;;
10074;SDS011;5076;42.680;23.288;2022-07-29T02:49:05;9.33;;;7.90;;
10074;SDS011;5076;42.680;23.288;2022-07-29T02:51:34;9.57;;;8.57;;
10074;SDS011;5076;42.680;23.288;2022-07-29T02:54:06;9.20;;;8.30;;
10074;SDS011;5076;42.680;23.288;2022-07-29T02:56:34;9.47;;;8.47;;
10074;SDS011;5076;42.680;23.288;2022-07-29T02:59:04;10.70;;;9.60;;
10074;SDS011;5076;42.680;23.288;2022-07-29T03:01:32;9.60;;;8.70;;
10074;SDS011;5076;42.680;23.288;2022-07-29T03:04:00;9.60;;;8.70;;
10074;SDS011;5076;42.680;23.288;2022-07-29T03:06:27;9.77;;;8.87;;
10074;SDS011;5076;42.680;23.288;2022-07-29T03:08:54;9.67;;;8.77;;
10074;SDS011;5076;42.680;23.288;2022-07-29T03:11:21;10.77;;;9.77;;
10074;SDS011;5076;42.680;23.288;2022-07-29T03:13:49;10.40;;;9.40;;
10074;SDS011;5076;42.680;23.288;2022-07-29T03:16:16;9.70;;;8.60;;
10074;SDS011;5076;42.680;23.288;2022-07-29T03:18:44;12.63;;;9.17;;
10074;SDS011;5076;42.680;23.288;2022-07-29T03:21:11;11.57;;;10.43;;
10074;SDS011;5076;42.680;23.288;2022-07-29T03:23:38;11.13;;;9.93;;
10074;SDS011;5076;42.680;23.288;2022-07-29T03:26:09;10.03;;;9.03;;
10074;SDS011;5076;42.680;23.288;2022-07-29T03:28:36;11.07;;;8.87;;
10074;SDS011;5076;42.680;23.288;2022-07-29T03:31:04;11.47;;;9.03;;
10074;SDS011;5076;42.680;23.288;2022-07-29T03:33:30;8.70;;;7.90;;
10074;SDS011;5076;42.680;23.288;2022-07-29T03:35:57;8.60;;;7.33;;
10074;SDS011;5076;42.680;23.288;2022-07-29T03:38:25;9.13;;;7.97;;
10074;SDS011;5076;42.680;23.288;2022-07-29T03:40:53;8.80;;;7.90;;
10074;SDS011;5076;42.680;23.288;2022-07-29T03:43:20;9.53;;;7.80;;
10074;SDS011;5076;42.680;23.288;2022-07-29T03:45:49;10.87;;;7.77;;
10074;SDS011;5076;42.680;23.288;2022-07-29T03:48:19;9.73;;;7.90;;
10074;SDS011;5076;42.680;23.288;2022-07-29T03:50:47;9.60;;;8.20;;
10074;SDS011;5076;42.680;23.288;2022-07-29T03:53:14;12.00;;;8.77;;
10074;SDS011;5076;42.680;23.288;2022-07-29T03:55:41;9.33;;;8.50;;
10074;SDS011;5076;42.680;23.288;2022-07-29T03:58:08;11.10;;;10.00;;
10074;SDS011;5076;42.680;23.288;2022-07-29T04:00:36;9.50;;;8.50;;
10074;SDS011;5076;42.680;23.288;2022-07-29T04:03:02;13.30;;;8.87;;
10074;SDS011;5076;42.680;23.288;2022-07-29T04:05:31;11.37;;;10.27;;
10074;SDS011;5076;42.680;23.288;2022-07-29T04:07:58;12.50;;;10.10;;
10074;SDS011;5076;42.680;23.288;2022-07-29T04:10:24;9.67;;;8.87;;
10074;SDS011;5076;42.680;23.288;2022-07-29T04:12:51;10.40;;;9.40;;
10074;SDS011;5076;42.680;23.288;2022-07-29T04:15:17;11.80;;;10.50;;
10074;SDS011;5076;42.680;23.288;2022-07-29T04:17:44;14.03;;;10.23;;
10074;SDS011;5076;42.680;23.288;2022-07-29T04:20:11;10.97;;;9.87;;
10074;SDS011;5076;42.680;23.288;2022-07-29T04:22:39;11.40;;;10.30;;
10074;SDS011;5076;42.680;23.288;2022-07-29T04:25:06;12.90;;;10.57;;
10074;SDS011;5076;42.680;23.288;2022-07-29T04:27:33;10.93;;;9.83;;
10074;SDS011;5076;42.680;23.288;2022-07-29T04:29:59;12.13;;;10.93;;
10074;SDS011;5076;42.680;23.288;2022-07-29T04:32:26;11.67;;;10.47;;
10074;SDS011;5076;42.680;23.288;2022-07-29T04:34:53;11.50;;;10.20;;
10074;SDS011;5076;42.680;23.288;2022-07-29T04:37:19;11.00;;;9.90;;
10074;SDS011;5076;42.680;23.288;2022-07-29T04:39:47;11.93;;;9.67;;
10074;SDS011;5076;42.680;23.288;2022-07-29T04:42:14;11.00;;;9.80;;
10074;SDS011;5076;42.680;23.288;2022-07-29T04:44:40;11.60;;;10.33;;
10074;SDS011;5076;42.680;23.288;2022-07-29T04:47:07;15.00;;;10.43;;
10074;SDS011;5076;42.680;23.288;2022-07-29T04:49:34;10.93;;;9.87;;
10074;SDS011;5076;42.680;23.288;2022-07-29T04:52:00;10.70;;;9.60;;
10074;SDS011;5076;42.680;23.288;2022-07-29T04:54:27;12.07;;;10.57;;
10074;SDS011;5076;42.680;23.288;2022-07-29T04:56:55;11.30;;;10.17;;
10074;SDS011;5076;42.680;23.288;2022-07-29T04:59:21;13.13;;;10.40;;
10074;SDS011;5076;42.680;23.288;2022-07-29T05:01:48;11.50;;;10.30;;
10074;SDS011;5076;42.680;23.288;2022-07-29T05:04:14;13.07;;;10.53;;
10074;SDS011;5076;42.680;23.288;2022-07-29T05:06:41;11.90;;;9.60;;
10074;SDS011;5076;42.680;23.288;2022-07-29T05:09:07;11.30;;;10.30;;
10074;SDS011;5076;42.680;23.288;2022-07-29T05:11:34;11.53;;;10.37;;
10074;SDS011;5076;42.680;23.288;2022-07-29T05:14:02;10.90;;;9.83;;
10074;SDS011;5076;42.680;23.288;2022-07-29T05:16:29;11.30;;;9.93;;
10074;SDS011;5076;42.680;23.288;2022-07-29T05:18:55;13.80;;;10.63;;
10074;SDS011;5076;42.680;23.288;2022-07-29T05:21:22;11.27;;;9.47;;
10074;SDS011;5076;42.680;23.288;2022-07-29T05:23:48;14.07;;;10.73;;
10074;SDS011;5076;42.680;23.288;2022-07-29T05:26:15;15.23;;;10.50;;
10074;SDS011;5076;42.680;23.288;2022-07-29T05:28:41;10.20;;;9.20;;
10074;SDS011;5076;42.680;23.288;2022-07-29T05:31:09;10.20;;;9.07;;
10074;SDS011;5076;42.680;23.288;2022-07-29T05:33:36;9.43;;;8.53;;
10074;SDS011;5076;42.680;23.288;2022-07-29T05:36:03;12.60;;;8.20;;
10074;SDS011;5076;42.680;23.288;2022-07-29T05:38:30;9.17;;;7.80;;
10074;SDS011;5076;42.680;23.288;2022-07-29T05:40:57;9.23;;;7.90;;
10074;SDS011;5076;42.680;23.288;2022-07-29T05:43:24;9.17;;;8.20;;
10074;SDS011;5076;42.680;23.288;2022-07-29T05:45:51;8.60;;;7.70;;
10074;SDS011;5076;42.680;23.288;2022-07-29T05:48:19;8.83;;;7.00;;
10074;SDS011;5076;42.680;23.288;2022-07-29T05:50:45;7.40;;;6.70;;
10074;SDS011;5076;42.680;23.288;2022-07-29T05:53:12;7.53;;;6.73;;
10074;SDS011;5076;42.680;23.288;2022-07-29T05:55:38;7.47;;;6.57;;
10074;SDS011;5076;42.680;23.288;2022-07-29T05:58:05;6.17;;;5.57;;
10074;SDS011;5076;42.680;23.288;2022-07-29T06:00:32;8.47;;;6.47;;
10074;SDS011;5076;42.680;23.288;2022-07-29T06:02:59;6.90;;;6.17;;
10074;SDS011;5076;42.680;23.288;2022-07-29T06:05:27;6.53;;;5.87;;
10074;SDS011;5076;42.680;23.288;2022-07-29T06:07:54;5.77;;;5.27;;
10074;SDS011;5076;42.680;23.288;2022-07-29T06:10:20;6.90;;;5.93;;
10074;SDS011;5076;42.680;23.288;2022-07-29T06:12:47;6.90;;;5.97;;
10074;SDS011;5076;42.680;23.288;2022-07-29T06:15:14;6.47;;;5.80;;
10074;SDS011;5076;42.680;23.288;2022-07-29T06:17:40;5.80;;;5.30;;
10074;SDS011;5076;42.680;23.288;2022-07-29T06:20:07;5.50;;;4.70;;
10074;SDS011;5076;42.680;23.288;2022-07-29T06:22:35;6.50;;;4.07;;
10074;SDS011;5076;42.680;23.288;2022-07-29T06:25:02;5.30;;;4.70;;
10074;SDS011;5076;42.680;23.288;2022-07-29T06:27:28;4.77;;;4.27;;
10074;SDS011;5076;42.680;23.288;2022-07-29T06:29:55;4.63;;;4.23;;
10074;SDS011;5076;42.680;23.288;2022-07-29T06:32:22;5.03;;;4.20;;
10074;SDS011;5076;42.680;23.288;2022-07-29T06:34:49;4.83;;;3.73;;
10074;SDS011;5076;42.680;23.288;2022-07-29T06:37:15;4.70;;;3.93;;
10074;SDS011;5076;42.680;23.288;2022-07-29T06:39:44;5.00;;;3.87;;
10074;SDS011;5076;42.680;23.288;2022-07-29T06:42:10;6.27;;;4.30;;
10074;SDS011;5076;42.680;23.288;2022-07-29T06:44:37;4.93;;;4.43;;
10074;SDS011;5076;42.680;23.288;2022-07-29T06:47:03;4.57;;;3.90;;
10074;SDS011;5076;42.680;23.288;2022-07-29T06:49:30;5.67;;;4.20;;
10074;SDS011;5076;42.680;23.288;2022-07-29T06:51:57;4.80;;;4.30;;
10074;SDS011;5076;42.680;23.288;2022-07-29T06:54:23;4.87;;;3.93;;
10074;SDS011;5076;42.680;23.288;2022-07-29T06:56:51;4.80;;;4.13;;
10074;SDS011;5076;42.680;23.288;2022-07-29T06:59:18;6.27;;;3.60;;
10074;SDS011;5076;42.680;23.288;2022-07-29T07:01:45;6.50;;;4.73;;
10074;SDS011;5076;42.680;23.288;2022-07-29T07:04:11;7.30;;;4.63;;
10074;SDS011;5076;42.680;23.288;2022-07-29T07:06:38;4.70;;;3.80;;
10074;SDS011;5076;42.680;23.288;2022-07-29T07:09:05;7.87;;;4.20;;
10074;SDS011;5076;42.680;23.288;2022-07-29T07:11:32;4.20;;;3.80;;
10074;SDS011;5076;42.680;23.288;2022-07-29T07:13:59;6.97;;;4.20;;
10074;SDS011;5076;42.680;23.288;2022-07-29T07:16:26;6.53;;;5.83;;
10074;SDS011;5076;42.680;23.288;2022-07-29T07:18:53;6.07;;;4.07;;
10074;SDS011;5076;42.680;23.288;2022-07-29T07:21:19;5.20;;;4.37;;
10074;SDS011;5076;42.680;23.288;2022-07-29T07:23:46;4.77;;;4.17;;
10074;SDS011;5076;42.680;23.288;2022-07-29T07:26:12;4.80;;;4.40;;
10074;SDS011;5076;42.680;23.288;2022-07-29T07:28:39;4.23;;;3.83;;
10074;SDS011;5076;42.680;23.288;2022-07-29T07:31:07;6.00;;;4.07;;
10074;SDS011;5076;42.680;23.288;2022-07-29T07:33:34;4.50;;;4.10;;
10074;SDS011;5076;42.680;23.288;2022-07-29T07:36:01;4.23;;;3.83;;
10074;SDS011;5076;42.680;23.288;2022-07-29T09:25:51;3.70;;;3.40;;
10074;SDS011;5076;42.680;23.288;2022-07-29T09:28:18;3.22;;;2.90;;
10074;SDS011;5076;42.680;23.288;2022-07-29T09:30:50;3.70;;;2.80;;
10074;SDS011;5076;42.680;23.288;2022-07-29T09:33:18;3.08;;;2.75;;
10074;SDS011;5076;42.680;23.288;2022-07-29T09:35:45;4.22;;;3.10;;
10074;SDS011;5076;42.680;23.288;2022-07-29T09:38:12;3.70;;;3.00;;
10074;SDS011;5076;42.680;23.288;2022-07-29T09:40:40;4.82;;;2.95;;
10074;SDS011;5076;42.680;23.288;2022-07-29T09:43:12;3.22;;;2.92;;
10074;SDS011;5076;42.680;23.288;2022-07-29T09:45:39;3.50;;;2.65;;
10074;SDS011;5076;42.680;23.288;2022-07-29T09:48:20;3.00;;;2.80;;
10074;SDS011;5076;42.680;23.288;2022-07-29T09:50:49;4.43;;;2.72;;
10074;SDS011;5076;42.680;23.288;2022-07-29T09:53:29;3.97;;;2.80;;
10074;SDS011;5076;42.680;23.288;2022-07-29T09:55:58;3.28;;;2.97;;
10074;SDS011;5076;42.680;23.288;2022-07-29T09:58:27;5.95;;;3.97;;
10074;SDS011;5076;42.680;23.288;2022-07-29T10:00:56;3.80;;;3.50;;
10074;SDS011;5076;42.680;23.288;2022-07-29T10:03:23;3.80;;;2.63;;
10074;SDS011;5076;42.680;23.288;2022-07-29T10:06:05;3.35;;;3.00;;
10074;SDS011;5076;42.680;23.288;2022-07-29T10:08:38;3.30;;;3.00;;
10074;SDS011;5076;42.680;23.288;2022-07-29T10:11:11;4.32;;;3.38;;
10074;SDS011;5076;42.680;23.288;2022-07-29T10:13:41;4.47;;;2.92;;
10074;SDS011;5076;42.680;23.288;2022-07-29T10:16:10;4.00;;;3.58;;
10074;SDS011;5076;42.680;23.288;2022-07-29T10:18:38;4.85;;;3.60;;
10074;SDS011;5076;42.680;23.288;2022-07-29T10:21:06;3.55;;;3.25;;
10074;SDS011;5076;42.680;23.288;2022-07-29T10:23:33;3.22;;;2.92;;
10074;SDS011;5076;42.680;23.288;2022-07-29T10:26:00;3.38;;;2.95;;
10074;SDS011;5076;42.680;23.288;2022-07-29T10:28:29;5.03;;;3.13;;
10074;SDS011;5076;42.680;23.288;2022-07-29T10:31:00;4.03;;;3.58;;
10074;SDS011;5076;42.680;23.288;2022-07-29T10:33:35;5.13;;;3.28;;
10074;SDS011;5076;42.680;23.288;2022-07-29T10:36:19;3.30;;;3.00;;
10074;SDS011;5076;42.680;23.288;2022-07-29T10:38:55;3.67;;;2.92;;
10074;SDS011;5076;42.680;23.288;2022-07-29T10:41:34;4.00;;;3.58;;
10074;SDS011;5076;42.680;23.288;2022-07-29T10:44:20;4.25;;;3.80;;
10074;SDS011;5076;42.680;23.288;2022-07-29T10:47:22;3.10;;;2.90;;
10074;SDS011;5076;42.680;23.288;2022-07-29T10:50:14;3.42;;;3.10;;
10074;SDS011;5076;42.680;23.288;2022-07-29T10:53:48;4.88;;;3.45;;
10074;SDS011;5076;42.680;23.288;2022-07-29T10:56:24;4.88;;;3.17;;
10074;SDS011;5076;42.680;23.288;2022-07-29T11:01:56;3.80;;;3.08;;
10074;SDS011;5076;42.680;23.288;2022-07-29T11:05:00;3.83;;;3.53;;
10074;SDS011;5076;42.680;23.288;2022-07-29T11:07:29;3.00;;;2.80;;
10074;SDS011;5076;42.680;23.288;2022-07-29T11:12:49;3.17;;;2.92;;
10074;SDS011;5076;42.680;23.288;2022-07-29T11:15:17;5.85;;;4.07;;
10074;SDS011;5076;42.680;23.288;2022-07-29T11:18:05;3.65;;;3.35;;
10074;SDS011;5076;42.680;23.288;2022-07-29T11:20:38;4.28;;;3.33;;
10074;SDS011;5076;42.680;23.288;2022-07-29T11:23:23;4.47;;;4.07;;
10074;SDS011;5076;42.680;23.288;2022-07-29T11:28:48;3.70;;;3.40;;
10074;SDS011;5076;42.680;23.288;2022-07-29T11:31:34;3.35;;;3.13;;
10074;SDS011;5076;42.680;23.288;2022-07-29T11:34:18;5.40;;;4.13;;
10074;SDS011;5076;42.680;23.288;2022-07-29T11:39:43;3.30;;;3.00;;
10074;SDS011;5076;42.680;23.288;2022-07-29T11:45:04;3.70;;;3.38;;
10074;SDS011;5076;42.680;23.288;2022-07-29T11:47:32;3.85;;;3.50;;
10074;SDS011;5076;42.680;23.288;2022-07-29T11:50:26;5.25;;;3.83;;
10074;SDS011;5076;42.680;23.288;2022-07-29T11:53:02;4.57;;;3.92;;
10074;SDS011;5076;42.680;23.288;2022-07-29T11:55:36;4.85;;;3.67;;
10074;SDS011;5076;42.680;23.288;2022-07-29T11:58:05;5.45;;;3.42;;
10074;SDS011;5076;42.680;23.288;2022-07-29T12:00:33;3.28;;;3.00;;
10074;SDS011;5076;42.680;23.288;2022-07-29T12:03:03;4.07;;;3.42;;
10074;SDS011;5076;42.680;23.288;2022-07-29T12:05:31;4.25;;;3.92;;
10074;SDS011;5076;42.680;23.288;2022-07-29T12:08:11;3.50;;;3.30;;
10074;SDS011;5076;42.680;23.288;2022-07-29T12:10:41;5.25;;;3.53;;
10074;SDS011;5076;42.680;23.288;2022-07-29T12:13:09;3.95;;;3.60;;
10074;SDS011;5076;42.680;23.288;2022-07-29T12:15:37;5.05;;;4.15;;
10074;SDS011;5076;42.680;23.288;2022-07-29T12:18:13;4.25;;;3.40;;
10074;SDS011;5076;42.680;23.288;2022-07-29T12:20:42;5.18;;;3.53;;
10074;SDS011;5076;42.680;23.288;2022-07-29T12:23:09;5.57;;;3.33;;
10074;SDS011;5076;42.680;23.288;2022-07-29T12:25:39;4.70;;;3.25;;
10074;SDS011;5076;42.680;23.288;2022-07-29T12:28:08;4.97;;;3.15;;
10074;SDS011;5076;42.680;23.288;2022-07-29T12:30:40;4.20;;;3.70;;
10074;SDS011;5076;42.680;23.288;2022-07-29T12:33:17;4.32;;;3.92;;
10074;SDS011;5076;42.680;23.288;2022-07-29T12:35:46;5.35;;;3.90;;
10074;SDS011;5076;42.680;23.288;2022-07-29T12:38:15;6.88;;;3.88;;
10074;SDS011;5076;42.680;23.288;2022-07-29T12:40:45;4.63;;;3.47;;
10074;SDS011;5076;42.680;23.288;2022-07-29T12:43:13;4.38;;;3.35;;
10074;SDS011;5076;42.680;23.288;2022-07-29T12:45:42;3.97;;;3.58;;
10074;SDS011;5076;42.680;23.288;2022-07-29T12:48:10;6.30;;;4.15;;
10074;SDS011;5076;42.680;23.288;2022-07-29T12:50:52;5.85;;;3.85;;
10074;SDS011;5076;42.680;23.288;2022-07-29T12:53:22;4.43;;;4.00;;
10074;SDS011;5076;42.680;23.288;2022-07-29T12:55:51;4.20;;;3.80;;
10074;SDS011;5076;42.680;23.288;2022-07-29T12:58:29;4.18;;;3.83;;
10074;SDS011;5076;42.680;23.288;2022-07-29T13:00:59;3.45;;;3.20;;
10074;SDS011;5076;42.680;23.288;2022-07-29T13:03:27;4.13;;;3.45;;
10074;SDS011;5076;42.680;23.288;2022-07-29T13:05:55;6.30;;;3.92;;
10074;SDS011;5076;42.680;23.288;2022-07-29T13:08:22;3.53;;;3.33;;
10074;SDS011;5076;42.680;23.288;2022-07-29T13:10:50;5.15;;;3.60;;
10074;SDS011;5076;42.680;23.288;2022-07-29T13:13:19;4.20;;;3.80;;
10074;SDS011;5076;42.680;23.288;2022-07-29T13:15:46;6.40;;;3.90;;
10074;SDS011;5076;42.680;23.288;2022-07-29T13:18:31;5.68;;;3.58;;
10074;SDS011;5076;42.680;23.288;2022-07-29T13:21:09;4.82;;;4.03;;
10074;SDS011;5076;42.680;23.288;2022-07-29T13:23:37;5.35;;;3.83;;
10074;SDS011;5076;42.680;23.288;2022-07-29T13:26:06;4.85;;;4.15;;
10074;SDS011;5076;42.680;23.288;2022-07-29T13:28:34;4.43;;;4.03;;
10074;SDS011;5076;42.680;23.288;2022-07-29T13:31:01;3.70;;;3.40;;
10074;SDS011;5076;42.680;23.288;2022-07-29T13:33:29;4.75;;;4.13;;
10074;SDS011;5076;42.680;23.288;2022-07-29T13:35:56;6.25;;;4.72;;
10074;SDS011;5076;42.680;23.288;2022-07-29T13:38:23;4.00;;;3.63;;
10074;SDS011;5076;42.680;23.288;2022-07-29T13:40:50;3.90;;;3.58;;
10074;SDS011;5076;42.680;23.288;2022-07-29T13:43:19;4.85;;;3.40;;
10074;SDS011;5076;42.680;23.288;2022-07-29T13:45:46;7.10;;;4.28;;
10074;SDS011;5076;42.680;23.288;2022-07-29T13:48:12;4.55;;;3.75;;
10074;SDS011;5076;42.680;23.288;2022-07-29T13:50:39;6.00;;;3.60;;
10074;SDS011;5076;42.680;23.288;2022-07-29T13:53:06;4.68;;;4.10;;
10074;SDS011;5076;42.680;23.288;2022-07-29T13:55:33;5.45;;;3.80;;
10074;SDS011;5076;42.680;23.288;2022-07-29T13:58:01;3.70;;;3.40;;
10074;SDS011;5076;42.680;23.288;2022-07-29T14:00:30;5.68;;;3.65;;
10074;SDS011;5076;42.680;23.288;2022-07-29T14:02:57;4.38;;;3.35;;
10074;SDS011;5076;42.680;23.288;2022-07-29T14:05:24;3.70;;;3.40;;
10074;SDS011;5076;42.680;23.288;2022-07-29T14:07:51;3.70;;;3.40;;
10074;SDS011;5076;42.680;23.288;2022-07-29T14:10:18;5.70;;;3.92;;
10074;SDS011;5076;42.680;23.288;2022-07-29T14:12:45;8.25;;;4.07;;
10074;SDS011;5076;42.680;23.288;2022-07-29T14:15:11;7.00;;;3.92;;
10074;SDS011;5076;42.680;23.288;2022-07-29T14:17:40;5.03;;;3.88;;
10074;SDS011;5076;42.680;23.288;2022-07-29T14:20:07;3.88;;;3.50;;
10074;SDS011;5076;42.680;23.288;2022-07-29T14:22:35;4.40;;;3.80;;
10074;SDS011;5076;42.680;23.288;2022-07-29T14:25:02;5.05;;;4.10;;
10074;SDS011;5076;42.680;23.288;2022-07-29T14:27:29;3.47;;;3.17;;
10074;SDS011;5076;42.680;23.288;2022-07-29T14:29:56;5.25;;;4.78;;
10074;SDS011;5076;42.680;23.288;2022-07-29T14:32:24;4.00;;;3.70;;
10074;SDS011;5076;42.680;23.288;2022-07-29T14:34:52;4.28;;;3.97;;
10074;SDS011;5076;42.680;23.288;2022-07-29T14:37:19;4.32;;;3.70;;
10074;SDS011;5076;42.680;23.288;2022-07-29T14:39:46;6.63;;;5.43;;
10074;SDS011;5076;42.680;23.288;2022-07-29T14:42:13;5.15;;;3.58;;
10074;SDS011;5076;42.680;23.288;2022-07-29T14:44:40;6.53;;;3.90;;
10074;SDS011;5076;42.680;23.288;2022-07-29T14:47:07;4.38;;;4.05;;
10074;SDS011;5076;42.680;23.288;2022-07-29T14:49:34;5.05;;;4.65;;
10074;SDS011;5076;42.680;23.288;2022-07-29T14:52:02;3.85;;;3.55;;
10074;SDS011;5076;42.680;23.288;2022-07-29T14:54:29;4.30;;;4.00;;
10074;SDS011;5076;42.680;23.288;2022-07-29T14:56:56;4.38;;;3.58;;
10074;SDS011;5076;42.680;23.288;2022-07-29T14:59:23;4.10;;;3.53;;
10074;SDS011;5076;42.680;23.288;2022-07-29T15:01:50;4.63;;;4.22;;
10074;SDS011;5076;42.680;23.288;2022-07-29T15:04:17;4.35;;;3.95;;
10074;SDS011;5076;42.680;23.288;2022-07-29T15:06:44;4.28;;;3.63;;
10074;SDS011;5076;42.680;23.288;2022-07-29T15:09:12;3.75;;;3.50;;
10074;SDS011;5076;42.680;23.288;2022-07-29T15:11:39;4.97;;;4.57;;
10074;SDS011;5076;42.680;23.288;2022-07-29T15:14:06;5.38;;;3.67;;
10074;SDS011;5076;42.680;23.288;2022-07-29T15:16:34;4.53;;;3.58;;
10074;SDS011;5076;42.680;23.288;2022-07-29T15:19:01;5.78;;;4.55;;
10074;SDS011;5076;42.680;23.288;2022-07-29T15:21:28;5.15;;;3.63;;
10074;SDS011;5076;42.680;23.288;2022-07-29T15:23:55;3.95;;;3.65;;
10074;SDS011;5076;42.680;23.288;2022-07-29T15:26:24;4.45;;;4.05;;
10074;SDS011;5076;42.680;23.288;2022-07-29T15:28:51;4.38;;;3.97;;
10074;SDS011;5076;42.680;23.288;2022-07-29T15:31:20;4.20;;;3.80;;
10074;SDS011;5076;42.680;23.288;2022-07-29T15:33:47;4.68;;;4.30;;
10074;SDS011;5076;42.680;23.288;2022-07-29T15:36:14;4.50;;;4.10;;
10074;SDS011;5076;42.680;23.288;2022-07-29T15:38:41;4.78;;;4.38;;
10074;SDS011;5076;42.680;23.288;2022-07-29T15:41:09;4.68;;;4.20;;
10074;SDS011;5076;42.680;23.288;2022-07-29T15:43:41;5.63;;;4.00;;
10074;SDS011;5076;42.680;23.288;2022-07-29T15:46:12;4.25;;;3.75;;
10074;SDS011;5076;42.680;23.288;2022-07-29T15:48:57;5.35;;;4.30;;
10074;SDS011;5076;42.680;23.288;2022-07-29T15:51:24;4.18;;;3.78;;
10074;SDS011;5076;42.680;23.288;2022-07-29T15:53:51;4.28;;;3.88;;
10074;SDS011;5076;42.680;23.288;2022-07-29T15:56:18;4.00;;;3.70;;
10074;SDS011;5076;42.680;23.288;2022-07-29T15:58:46;7.32;;;4.53;;
10074;SDS011;5076;42.680;23.288;2022-07-29T16:01:13;4.32;;;3.88;;
10074;SDS011;5076;42.680;23.288;2022-07-29T16:03:40;4.30;;;3.90;;
10074;SDS011;5076;42.680;23.288;2022-07-29T16:06:07;4.30;;;3.90;;
10074;SDS011;5076;42.680;23.288;2022-07-29T16:08:34;8.15;;;4.45;;
10074;SDS011;5076;42.680;23.288;2022-07-29T16:11:01;4.63;;;3.85;;
10074;SDS011;5076;42.680;23.288;2022-07-29T16:13:28;7.38;;;4.72;;
10074;SDS011;5076;42.680;23.288;2022-07-29T16:15:56;5.93;;;4.50;;
10074;SDS011;5076;42.680;23.288;2022-07-29T16:18:23;3.97;;;3.67;;
10074;SDS011;5076;42.680;23.288;2022-07-29T16:20:50;8.68;;;5.28;;
10074;SDS011;5076;42.680;23.288;2022-07-29T16:23:17;4.03;;;3.63;;
10074;SDS011;5076;42.680;23.288;2022-07-29T16:25:44;5.35;;;4.10;;
10074;SDS011;5076;42.680;23.288;2022-07-29T16:28:11;5.63;;;4.68;;
10074;SDS011;5076;42.680;23.288;2022-07-29T16:30:38;3.75;;;3.45;;
10074;SDS011;5076;42.680;23.288;2022-07-29T16:33:07;4.30;;;3.92;;
10074;SDS011;5076;42.680;23.288;2022-07-29T16:35:34;8.10;;;3.88;;
10074;SDS011;5076;42.680;23.288;2022-07-29T16:38:03;5.80;;;4.03;;
10074;SDS011;5076;42.680;23.288;2022-07-29T16:40:30;4.93;;;3.55;;
10074;SDS011;5076;42.680;23.288;2022-07-29T16:42:56;4.30;;;4.00;;
10074;SDS011;5076;42.680;23.288;2022-07-29T16:45:24;4.05;;;3.60;;
10074;SDS011;5076;42.680;23.288;2022-07-29T16:47:52;4.70;;;3.80;;
10074;SDS011;5076;42.680;23.288;2022-07-29T16:50:21;4.18;;;3.53;;
10074;SDS011;5076;42.680;23.288;2022-07-29T16:52:49;3.97;;;3.50;;
10074;SDS011;5076;42.680;23.288;2022-07-29T16:55:16;6.50;;;4.45;;
10074;SDS011;5076;42.680;23.288;2022-07-29T16:57:43;4.28;;;3.92;;